Tacoma Narrows Airport
KTIW : now visible

Airfield :











YOU CAN JOIN US ON...

 
LOGIN :

Register | Disclaimer

   EN    FR    IT 

 









Legend :    VFR   Marginal VFR   IFR   Intensive IFR   Very Intensive IFR
Visi :
Ceiling :
>= 8 km
>= 3000ft
5 to 8 km
1000 to 3000 ft
1500m to 5 km
500 to 1000 ft
800 to 1500m
200 to 500 ft
< 800m
< 200 ft
Symbols :   Thunderstorms  Fog  Heavy snow  Heavy precipitations  Wind > 20 kt







- Airport Elevation : 294 ft


KTIW - Tacoma Narrows

CURRENT METAR :
  • 220153Z AUTO 15003KT 10SM OVC035 17/13 A3002 RMK AO2 SLP165 T01720128

EXPIRED METARs :
  • 220053Z AUTO 23003KT 10SM OVC036 17/13 A3004 RMK AO2 SLP171 T01720128
  • 212353Z 20004KT 10SM OVC038 17/13 A3006 RMK AO2 SLP178 T01720128 10183 20150 56018

TAF N/A
No reported NOTAMs for that airfield.



MET'MAP, your aeronautical weather chart ! - Copyright ORBIFLY December 2007 - Disclaimer

ORBIFLY MET'MAP TEAM :

Programming & Development : Alexandra Zaïnal
Concept & Development : Baudouin d'Aumeries
Co-Development & Prog : Marc-Olivier Méhu
Technical & hardware support : Manuel Goepfert

Contact : metmap@orbifly.com




SOURCES & CREDITS :

   NOAA       Earth
Advisory